Aguilares, Texas
Current Conditions -  °F | °C
As of 10:35 PM on Friday 21 Nov 2014 (Local Time) from KHBV Reporting Station
Overcast Overcast  
Wind Chill: 70°   Ceiling: 1300
Heat Index: 70°   Visibility: 10mi
Dew Point: 66°   Wind: 14mph
Humidity: 86%   Direction: 120°ESE
Pressure: 30.03"   Gusts: 23mph
Location:  27.4459°N, 99.0184°W
Report Text: KHBV 220435Z AUTO 12012G20KT 10SM BKN013 OVC050 21/19 A3003 RMK AO2 T02110187
Loading
Personal Weather Stations






























Interactive Weather Map New forecast layout! Learn more

10-Day Weather Forecast

Advertisements
Track Severe Weather on mobile